La Crosse Municipal Airport

Airport
ICAO code: 
KLSE
Summary
ICAO Region: 
NAM
Territory: 
Location: 
La Crosse, Wisconsin,
Coordinates: 
Aerial View: 
43° 52' 52.598" N, 91° 15' 31.586" W
Airport BS: 
Bird Strike
Airport CFIT: 
Altimeter Temperature Error Correction
Airport WX: 
Cumulonimbus
Metar
Observation
KLSE 021353Z 31011KT 10SM CLR 07/M01 A2979 RMK AO2 SLP091 T00721011
Station
La Crosse, La Crosse Municipal Airport
Date/Time
2021-12-02 13:53:00
Wind direction
310°
Wind speed
11 kts
Lowest cloud amount
n/a
Temperature
7.2°C
Dew point
-1.1°C
Humidity
55%
Weather condition
n/a

Description

La Crosse Municipal Airport is a public use airport located 7 km northwest of the central business district of La Crosse, a city in La Crosse County, Wisconsin.

Climatology

Temperate continental climate (Köppen climate classification Dfb) - characterized by four seasons: cold, windy, snowy winters, mild springs, hot summers, and crisp and relatively short autumns. Precipitation reaches its lowest in February and peaks in the latter half of spring and summer.

Runways

Designator Length Width Surface Rops
3/21 1615 46 ASP Yes/Yes
13/31 1844 46 ASP Yes/Yes
18/36 2602 46 CON Yes/Yes
Airport map: 
Aerial View: 

SKYbrary Partners:

Safety knowledge contributed by: